createdAt,value
2023-01-29T00:02:08.967Z,102131.88
2023-01-29T00:04:37.008Z,102134.44
2023-01-29T00:07:05.174Z,102134.44
2023-01-29T00:09:33.122Z,102134.44
2023-01-29T00:12:01.174Z,102137.03
2023-01-29T00:14:29.143Z,102132.66
2023-01-29T00:16:57.210Z,102131.91
2023-01-29T00:19:26.570Z,102127.56
2023-01-29T00:21:54.611Z,102128.38
2023-01-29T00:24:22.846Z,102134.44
2023-01-29T00:26:51.125Z,102131.03
2023-01-29T00:29:19.087Z,102138.78
2023-01-29T00:31:50.212Z,102133.56
2023-01-29T00:34:18.341Z,102130.81
2023-01-29T00:36:47.587Z,102122.34
2023-01-29T00:39:15.516Z,102118.03
2023-01-29T00:42:15.718Z,102100.78
2023-01-29T00:45:06.945Z,102099.81
2023-01-29T00:47:34.980Z,102105.88
2023-01-29T00:50:03.442Z,102105.00
2023-01-29T00:52:32.838Z,102101.66
2023-01-29T00:55:01.726Z,102105.13
2023-01-29T00:57:31.854Z,102098.22
2023-01-29T01:00:00.036Z,102102.50
2023-01-29T01:02:46.388Z,102097.34
2023-01-29T01:05:18.745Z,102098.00
2023-01-29T01:07:49.901Z,102102.34
2023-01-29T01:10:22.393Z,102108.38
2023-01-29T01:12:54.144Z,102107.53
2023-01-29T01:15:22.507Z,102103.22
2023-01-29T01:17:53.515Z,102106.56
2023-01-29T01:20:21.477Z,102105.84
2023-01-29T01:22:51.672Z,102098.97
2023-01-29T01:25:19.785Z,102099.09
2023-01-29T01:27:47.839Z,102103.34
2023-01-29T01:30:17.640Z,102111.09
2023-01-29T01:32:46.112Z,102104.06
2023-01-29T01:35:14.719Z,102104.06
2023-01-29T01:37:43.140Z,102096.41
2023-01-29T01:40:18.352Z,102101.50
2023-01-29T01:42:49.397Z,102099.69
2023-01-29T01:45:23.390Z,102100.56
2023-01-29T01:47:54.593Z,102101.41
2023-01-29T01:50:27.869Z,102104.91
2023-01-29T01:53:02.884Z,102097.91
2023-01-29T01:55:34.887Z,102109.19
2023-01-29T01:58:07.848Z,102104.97
2023-01-29T02:00:35.789Z,102095.38
2023-01-29T02:03:22.997Z,102090.25
2023-01-29T02:06:09.345Z,102088.56
2023-01-29T02:09:03.838Z,102084.25
2023-01-29T02:11:33.212Z,102080.75
2023-01-29T02:14:01.300Z,102078.25
2023-01-29T02:16:29.323Z,102084.25
2023-01-29T02:18:57.694Z,102077.34
2023-01-29T02:21:48.173Z,102077.34
2023-01-29T02:24:43.227Z,102073.91
2023-01-29T02:27:16.279Z,102073.06
2023-01-29T02:29:58.065Z,102068.72
2023-01-29T02:32:34.886Z,102068.75
2023-01-29T02:35:29.717Z,102064.50
2023-01-29T02:38:08.363Z,102074.00
2023-01-29T02:40:44.566Z,102071.38
2023-01-29T02:43:28.833Z,102067.16
2023-01-29T02:46:06.504Z,102070.56
2023-01-29T02:48:42.340Z,102070.50
2023-01-29T02:51:19.418Z,102063.59
2023-01-29T02:54:00.494Z,102060.97
2023-01-29T02:56:32.701Z,102058.41
2023-01-29T02:59:08.607Z,102056.78
2023-01-29T03:01:41.740Z,102051.56
2023-01-29T03:04:14.619Z,102052.44
2023-01-29T03:06:45.996Z,102051.53
2023-01-29T03:09:27.712Z,102050.63
2023-01-29T03:12:19.983Z,102058.38
2023-01-29T03:15:08.820Z,102054.94
2023-01-29T03:17:42.846Z,102048.88
2023-01-29T03:20:17.628Z,102047.22
2023-01-29T03:22:51.473Z,102043.72
2023-01-29T03:25:40.200Z,102043.78
2023-01-29T03:28:28.443Z,102050.56
2023-01-29T03:31:18.707Z,102045.28
2023-01-29T03:33:59.214Z,102034.09
2023-01-29T03:36:37.999Z,102035.94
2023-01-29T03:39:07.305Z,102024.72
2023-01-29T03:41:39.531Z,102022.13
2023-01-29T03:44:16.248Z,102022.25
2023-01-29T03:46:51.620Z,102010.09
2023-01-29T03:49:29.712Z,102008.34
2023-01-29T03:52:03.676Z,102005.78
2023-01-29T03:54:40.619Z,102000.63
2023-01-29T03:57:16.007Z,101990.22
2023-01-29T03:59:54.572Z,101987.72
2023-01-29T04:02:49.640Z,101985.88
2023-01-29T04:05:23.899Z,101975.56
2023-01-29T04:08:10.564Z,101972.13
2023-01-29T04:10:40.415Z,101965.22
2023-01-29T04:13:11.545Z,101966.88
2023-01-29T04:15:47.705Z,101958.38
2023-01-29T04:18:16.067Z,101941.06
2023-01-29T04:21:07.151Z,101945.34
2023-01-29T04:23:35.353Z,101946.31
2023-01-29T04:26:21.655Z,101939.34
2023-01-29T04:29:00.503Z,101942.91
2023-01-29T04:31:33.773Z,101935.88
2023-01-29T04:34:09.602Z,101938.53
2023-01-29T04:36:47.611Z,101928.28
2023-01-29T04:39:21.960Z,101930.00
2023-01-29T04:41:54.291Z,101930.88
2023-01-29T04:44:28.557Z,101930.19
2023-01-29T04:47:06.001Z,101931.88
2023-01-29T04:49:39.999Z,101935.34
2023-01-29T04:52:17.931Z,101935.31
2023-01-29T04:54:57.125Z,101930.03
2023-01-29T04:57:33.963Z,101941.31
2023-01-29T05:00:08.193Z,101932.59
2023-01-29T05:02:40.270Z,101935.19
2023-01-29T05:05:09.926Z,101932.69
2023-01-29T05:07:40.442Z,101936.00
2023-01-29T05:10:11.793Z,101926.66
2023-01-29T05:12:41.619Z,101941.25
2023-01-29T05:15:15.454Z,101948.13
2023-01-29T05:17:44.096Z,101937.69
2023-01-29T05:20:13.729Z,101944.69
2023-01-29T05:22:43.643Z,101946.22
2023-01-29T05:25:22.985Z,101949.72
2023-01-29T05:28:04.391Z,101950.53
2023-01-29T05:30:36.803Z,101944.69
2023-01-29T05:33:05.881Z,101937.72
2023-01-29T05:35:33.927Z,101942.91
2023-01-29T05:38:03.187Z,101951.53
2023-01-29T05:40:31.101Z,101943.97
2023-01-29T05:42:59.021Z,101948.34
2023-01-29T05:45:27.144Z,101944.88
2023-01-29T05:47:57.765Z,101944.00
2023-01-29T05:50:26.747Z,101943.94
2023-01-29T05:52:57.941Z,101948.16
2023-01-29T05:55:27.667Z,101944.84
2023-01-29T05:57:55.544Z,101953.38
2023-01-29T06:00:23.704Z,101956.81
2023-01-29T06:02:51.747Z,101955.88
2023-01-29T06:05:19.729Z,101951.66
2023-01-29T06:07:47.647Z,101961.84
2023-01-29T06:10:17.897Z,101967.88
2023-01-29T06:12:47.464Z,101967.88
2023-01-29T06:15:16.343Z,101983.31
2023-01-29T06:17:44.209Z,101975.63
2023-01-29T06:20:13.335Z,101973.13
2023-01-29T06:22:41.244Z,101974.81
2023-01-29T06:25:10.118Z,101973.06
2023-01-29T06:27:38.034Z,101973.00
2023-01-29T06:30:08.849Z,101969.63
2023-01-29T06:32:36.931Z,101962.69
2023-01-29T06:35:05.508Z,101962.59
2023-01-29T06:37:33.461Z,101959.97
2023-01-29T06:40:01.318Z,101959.13
2023-01-29T06:42:29.281Z,101961.69
2023-01-29T06:44:57.811Z,101965.16
2023-01-29T06:47:28.406Z,101966.84
2023-01-29T06:49:56.339Z,101975.47
2023-01-29T06:52:25.349Z,101967.69
2023-01-29T06:54:53.243Z,101969.41
2023-01-29T06:57:21.202Z,101971.06
2023-01-29T06:59:49.136Z,101974.59
2023-01-29T07:02:17.319Z,101978.91
2023-01-29T07:04:49.290Z,101972.81
2023-01-29T07:07:18.496Z,101965.00
2023-01-29T07:09:46.561Z,101961.47
2023-01-29T07:12:14.548Z,101961.63
2023-01-29T07:14:42.410Z,101963.34
2023-01-29T07:17:10.402Z,101958.91
2023-01-29T07:19:38.366Z,101953.59
2023-01-29T07:22:07.655Z,101951.03
2023-01-29T07:24:35.808Z,101951.88
2023-01-29T07:27:03.844Z,101952.72
2023-01-29T07:29:31.834Z,101960.31
2023-01-29T07:31:59.970Z,101970.69
2023-01-29T07:34:29.820Z,101969.00
2023-01-29T07:36:58.024Z,101968.00
2023-01-29T07:39:27.354Z,101972.34
2023-01-29T07:41:55.251Z,101966.34
2023-01-29T07:44:24.319Z,101955.19
2023-01-29T07:46:52.267Z,101944.78
2023-01-29T07:49:20.309Z,101950.81
2023-01-29T07:51:48.278Z,101941.38
2023-01-29T07:54:16.190Z,101929.28
2023-01-29T07:56:45.472Z,101918.09
2023-01-29T07:59:13.446Z,101929.22
2023-01-29T08:01:41.421Z,101931.00
2023-01-29T08:04:09.386Z,101937.84
2023-01-29T08:06:40.015Z,101938.88
2023-01-29T08:09:08.759Z,101928.53
2023-01-29T08:11:36.976Z,101921.72
2023-01-29T08:14:06.498Z,101920.88
2023-01-29T08:16:34.522Z,101921.44
2023-01-29T08:19:03.293Z,101924.97
2023-01-29T08:21:31.372Z,101932.78
2023-01-29T08:26:32.087Z,101923.34
2023-01-29T08:29:00.209Z,101918.09
2023-01-29T08:31:29.625Z,101917.91
2023-01-29T08:33:58.828Z,101927.22
2023-01-29T08:36:26.873Z,101915.31
2023-01-29T08:38:54.798Z,101921.22
2023-01-29T08:41:22.803Z,101916.03
2023-01-29T08:43:50.763Z,101913.38
2023-01-29T08:46:18.800Z,101914.31
2023-01-29T08:48:48.177Z,101913.44
2023-01-29T08:51:16.658Z,101922.16
2023-01-29T08:53:44.599Z,101923.06
2023-01-29T08:56:12.534Z,101926.47
2023-01-29T08:58:40.674Z,101918.59
2023-01-29T09:01:10.528Z,101911.66
2023-01-29T09:03:40.901Z,101907.41
2023-01-29T09:06:12.666Z,101909.03
2023-01-29T09:08:41.295Z,101912.63
2023-01-29T09:11:09.764Z,101898.75
2023-01-29T09:13:38.218Z,101897.06
2023-01-29T09:16:07.021Z,101905.63
2023-01-29T09:18:35.380Z,101904.81
2023-01-29T09:21:03.622Z,101903.16
2023-01-29T09:23:36.195Z,101899.34
2023-01-29T09:26:04.658Z,101902.03
2023-01-29T09:28:32.790Z,101914.88
2023-01-29T09:31:02.333Z,101904.50
2023-01-29T09:33:30.950Z,101899.16
2023-01-29T09:35:59.188Z,101904.25
2023-01-29T09:38:27.441Z,101897.28
2023-01-29T09:41:03.897Z,101894.66
2023-01-29T09:43:44.005Z,101889.38
2023-01-29T09:46:18.269Z,101881.34
2023-01-29T09:48:48.316Z,101871.13
2023-01-29T09:51:26.513Z,101875.47
2023-01-29T09:54:05.902Z,101865.19
2023-01-29T09:56:36.371Z,101867.56
2023-01-29T09:59:04.483Z,101846.53
2023-01-29T10:01:38.036Z,101856.97
2023-01-29T10:04:23.658Z,101847.34
2023-01-29T10:07:13.443Z,101853.97
2023-01-29T10:09:52.253Z,101853.97
2023-01-29T10:12:41.537Z,101843.44
2023-01-29T10:15:20.917Z,101843.56
2023-01-29T10:18:04.910Z,101836.50
2023-01-29T10:20:48.889Z,101824.53
2023-01-29T10:23:23.077Z,101826.31
2023-01-29T10:25:51.328Z,101837.44
2023-01-29T10:28:24.659Z,101836.41
2023-01-29T10:30:57.986Z,101841.22
2023-01-29T10:33:48.789Z,101845.13
2023-01-29T10:36:23.950Z,101846.06
2023-01-29T10:38:52.598Z,101834.22
2023-01-29T10:41:35.886Z,101840.91
2023-01-29T10:44:18.523Z,101831.97
2023-01-29T10:47:05.546Z,101827.59
2023-01-29T10:49:56.205Z,101820.97
2023-01-29T10:52:40.083Z,101811.56
2023-01-29T10:55:19.519Z,101815.81
2023-01-29T10:58:03.094Z,101817.28
2023-01-29T11:00:39.161Z,101802.44
2023-01-29T11:03:26.962Z,101797.06
2023-01-29T11:06:05.266Z,101780.69
2023-01-29T11:08:38.517Z,101786.63
2023-01-29T11:11:09.629Z,101781.47
2023-01-29T11:13:43.900Z,101780.66
2023-01-29T11:16:13.651Z,101775.66
2023-01-29T11:18:56.840Z,101780.81
2023-01-29T11:21:26.413Z,101769.59
2023-01-29T11:24:08.142Z,101759.50
2023-01-29T11:26:40.872Z,101761.25
2023-01-29T11:29:33.076Z,101759.25
2023-01-29T11:32:06.800Z,101746.88
2023-01-29T11:34:35.615Z,101766.72
2023-01-29T11:37:05.183Z,101750.03
2023-01-29T11:39:33.876Z,101749.03
2023-01-29T11:42:03.742Z,101737.41
2023-01-29T11:44:34.099Z,101741.72
2023-01-29T11:47:14.264Z,101730.25
2023-01-29T11:49:46.897Z,101728.72
2023-01-29T11:52:18.194Z,101728.59
2023-01-29T11:54:50.340Z,101733.22
2023-01-29T11:57:27.633Z,101722.75
2023-01-29T11:59:58.892Z,101741.00
2023-01-29T12:02:33.220Z,101727.88
2023-01-29T12:05:05.751Z,101713.38
2023-01-29T12:07:35.324Z,101716.84
2023-01-29T12:10:03.796Z,101705.97
2023-01-29T12:12:42.296Z,101703.44
2023-01-29T12:15:20.001Z,101685.19
2023-01-29T12:18:06.923Z,101678.50
2023-01-29T12:20:39.491Z,101682.06
2023-01-29T12:23:21.753Z,101679.38
2023-01-29T12:25:59.972Z,101676.31
2023-01-29T12:28:55.513Z,101680.88
2023-01-29T12:31:35.984Z,101675.63
2023-01-29T12:34:16.445Z,101670.47
2023-01-29T12:36:53.239Z,101668.75
2023-01-29T12:39:22.272Z,101655.50
2023-01-29T12:41:55.950Z,101646.75
2023-01-29T12:44:31.444Z,101652.34
2023-01-29T12:47:05.063Z,101648.69
2023-01-29T12:49:40.442Z,101651.38
2023-01-29T12:52:13.406Z,101646.19
2023-01-29T12:54:49.166Z,101647.13
2023-01-29T12:57:24.195Z,101649.91
2023-01-29T12:59:59.139Z,101649.66
2023-01-29T13:02:40.897Z,101643.66
2023-01-29T13:05:22.152Z,101657.47
2023-01-29T13:07:55.916Z,101653.16
2023-01-29T13:10:28.008Z,101644.97
2023-01-29T13:13:03.331Z,101652.31
2023-01-29T13:15:35.624Z,101638.56
2023-01-29T13:18:34.646Z,101630.19
2023-01-29T13:21:05.348Z,101626.66
2023-01-29T13:23:38.215Z,101635.66
2023-01-29T13:26:06.742Z,101620.19
2023-01-29T13:28:34.817Z,101620.50
2023-01-29T13:31:15.905Z,101621.44
2023-01-29T13:33:52.592Z,101615.34
2023-01-29T13:36:28.957Z,101616.75
2023-01-29T13:39:05.129Z,101613.22
2023-01-29T13:41:39.728Z,101616.13
2023-01-29T13:44:18.769Z,101609.53
2023-01-29T13:46:52.717Z,101609.91
2023-01-29T13:49:30.332Z,101610.91
2023-01-29T13:52:02.253Z,101619.63
2023-01-29T13:54:30.589Z,101623.97
2023-01-29T13:57:01.732Z,101619.59
2023-01-29T13:59:53.037Z,101602.09
2023-01-29T14:02:24.231Z,101611.63
2023-01-29T14:04:52.644Z,101609.53
2023-01-29T14:07:49.028Z,101596.00
2023-01-29T14:10:20.725Z,101608.63
2023-01-29T14:12:53.611Z,101586.59
2023-01-29T14:15:34.423Z,101597.16
2023-01-29T14:18:19.455Z,101590.06
2023-01-29T14:20:55.295Z,101592.97
2023-01-29T14:23:31.065Z,101586.25
2023-01-29T14:26:02.120Z,101584.09
2023-01-29T14:28:33.128Z,101586.97
2023-01-29T14:31:04.558Z,101595.22
2023-01-29T14:33:39.830Z,101585.91
2023-01-29T14:36:14.247Z,101588.50
2023-01-29T14:38:51.144Z,101590.31
2023-01-29T14:41:26.724Z,101581.66
2023-01-29T14:44:36.478Z,101578.41
2023-01-29T14:47:04.821Z,101577.44
2023-01-29T14:49:53.779Z,101576.91
2023-01-29T14:52:25.823Z,101582.91
2023-01-29T14:55:00.707Z,101572.00
2023-01-29T14:57:31.365Z,101572.94
2023-01-29T15:00:02.106Z,101560.78
2023-01-29T15:02:38.881Z,101560.78
2023-01-29T15:05:12.009Z,101550.44
2023-01-29T15:07:45.775Z,101564.09
2023-01-29T15:10:22.633Z,101558.41
2023-01-29T15:12:55.567Z,101549.78
2023-01-29T15:15:34.616Z,101546.63
2023-01-29T15:18:06.437Z,101552.72
2023-01-29T15:20:37.107Z,101551.16
2023-01-29T15:23:23.501Z,101545.84
2023-01-29T15:25:56.225Z,101546.69
2023-01-29T15:28:24.620Z,101545.06
2023-01-29T15:30:55.946Z,101531.50
2023-01-29T15:33:24.401Z,101528.53
2023-01-29T15:36:06.768Z,101526.72
2023-01-29T15:38:36.603Z,101522.50
2023-01-29T15:41:20.301Z,101519.97
2023-01-29T15:43:50.617Z,101520.09
2023-01-29T15:46:25.528Z,101516.44
2023-01-29T15:48:55.881Z,101516.38
2023-01-29T15:51:27.462Z,101513.69
2023-01-29T15:53:58.055Z,101502.59
2023-01-29T15:56:32.011Z,101522.25
2023-01-29T15:59:04.021Z,101505.81
2023-01-29T16:01:35.512Z,101503.25
2023-01-29T16:04:04.735Z,101512.69
2023-01-29T16:06:37.749Z,101501.59
2023-01-29T16:09:06.988Z,101494.53
2023-01-29T16:11:37.213Z,101496.44
2023-01-29T16:14:08.253Z,101492.16
2023-01-29T16:16:36.548Z,101485.16
2023-01-29T16:19:15.387Z,101495.81
2023-01-29T16:21:46.034Z,101492.34
2023-01-29T16:24:22.239Z,101485.47
2023-01-29T16:26:57.528Z,101488.75
2023-01-29T16:29:31.411Z,101488.06
2023-01-29T16:32:02.520Z,101494.09
2023-01-29T16:34:33.618Z,101486.25
2023-01-29T16:37:04.244Z,101475.75
2023-01-29T16:39:35.823Z,101483.47
2023-01-29T16:42:23.635Z,101487.97
2023-01-29T16:44:54.532Z,101476.09
2023-01-29T16:47:28.483Z,101480.41
2023-01-29T16:49:58.104Z,101477.66
2023-01-29T16:52:29.141Z,101473.34
2023-01-29T16:55:03.521Z,101478.53
2023-01-29T16:57:34.924Z,101477.66
2023-01-29T17:00:07.787Z,101480.34
2023-01-29T17:02:39.633Z,101483.81
2023-01-29T17:05:10.747Z,101479.47
2023-01-29T17:07:39.522Z,101475.06
2023-01-29T17:10:08.682Z,101470.97
2023-01-29T17:12:39.073Z,101456.34
2023-01-29T17:15:34.419Z,101465.84
2023-01-29T17:18:02.362Z,101458.28
2023-01-29T17:20:31.769Z,101454.69
2023-01-29T17:22:59.789Z,101450.47
2023-01-29T17:25:29.244Z,101447.03
2023-01-29T17:28:01.716Z,101440.84
2023-01-29T17:30:33.947Z,101438.66
2023-01-29T17:33:03.249Z,101442.00
2023-01-29T17:35:31.976Z,101446.25
2023-01-29T17:38:00.211Z,101430.00
2023-01-29T17:40:34.442Z,101438.63
2023-01-29T17:43:04.316Z,101424.56
2023-01-29T17:45:32.455Z,101415.91
2023-01-29T17:48:00.697Z,101421.19
2023-01-29T17:50:31.804Z,101408.91
2023-01-29T17:52:59.746Z,101402.75
2023-01-29T17:55:27.622Z,101386.47
2023-01-29T17:57:56.145Z,101390.06
2023-01-29T18:00:26.505Z,101388.03
2023-01-29T18:02:54.763Z,101389.69
2023-01-29T18:05:22.694Z,101377.72
2023-01-29T18:07:54.611Z,101385.66
2023-01-29T18:10:23.256Z,101374.22
2023-01-29T18:12:51.348Z,101366.56
2023-01-29T18:15:20.570Z,101351.19
2023-01-29T18:17:52.924Z,101351.19
2023-01-29T18:20:23.779Z,101354.38
2023-01-29T18:22:52.171Z,101353.66
2023-01-29T18:25:21.201Z,101340.41
2023-01-29T18:27:49.908Z,101350.03
2023-01-29T18:30:18.619Z,101346.44
2023-01-29T18:32:47.503Z,101349.25
2023-01-29T18:35:18.194Z,101348.94
2023-01-29T18:37:46.785Z,101342.75
2023-01-29T18:40:17.135Z,101341.88
2023-01-29T18:42:45.860Z,101338.53
2023-01-29T18:45:15.248Z,101333.50
2023-01-29T18:47:43.638Z,101326.50
2023-01-29T18:50:12.902Z,101329.91
2023-01-29T18:52:42.898Z,101336.19
2023-01-29T18:55:12.021Z,101331.97
2023-01-29T18:58:26.146Z,101330.03
2023-01-29T19:00:29.866Z,101330.97
2023-01-29T19:02:58.169Z,101323.72
2023-01-29T19:05:26.182Z,101306.38
2023-01-29T19:07:55.635Z,101308.09
2023-01-29T19:10:23.759Z,101309.16
2023-01-29T19:12:51.962Z,101301.31
2023-01-29T19:15:22.053Z,101312.47
2023-01-29T19:17:50.534Z,101288.91
2023-01-29T19:20:19.783Z,101301.06
2023-01-29T19:22:48.618Z,101300.91
2023-01-29T19:25:19.599Z,101284.94
2023-01-29T19:27:47.809Z,101285.13
2023-01-29T19:30:16.223Z,101276.41
2023-01-29T19:32:44.289Z,101279.09
2023-01-29T19:35:12.311Z,101269.88
2023-01-29T19:37:40.347Z,101254.25
2023-01-29T19:40:09.400Z,101263.66
2023-01-29T19:42:38.821Z,101258.47
2023-01-29T19:45:08.298Z,101250.00
2023-01-29T19:47:39.846Z,101246.53
2023-01-29T19:50:08.619Z,101246.59
2023-01-29T19:52:52.313Z,101234.19
2023-01-29T19:55:21.568Z,101237.09
2023-01-29T19:57:53.165Z,101227.50
2023-01-29T20:00:22.639Z,101235.94
2023-01-29T20:02:51.281Z,101228.44
2023-01-29T20:05:20.678Z,101229.19
2023-01-29T20:07:49.970Z,101225.66
2023-01-29T20:10:18.795Z,101218.69
2023-01-29T20:12:47.605Z,101209.16
2023-01-29T20:15:17.050Z,101199.06
2023-01-29T20:17:45.869Z,101198.41
2023-01-29T20:20:15.053Z,101196.88
2023-01-29T20:22:43.195Z,101192.59
2023-01-29T20:25:13.514Z,101189.38
2023-01-29T20:27:41.890Z,101185.13
2023-01-29T20:30:11.888Z,101174.94
2023-01-29T20:32:46.914Z,101182.59
2023-01-29T20:35:14.983Z,101173.03
2023-01-29T20:37:43.041Z,101169.81
2023-01-29T20:40:12.529Z,101168.94
2023-01-29T20:42:40.631Z,101157.06
2023-01-29T20:45:09.354Z,101150.28
2023-01-29T20:47:37.368Z,101162.38
2023-01-29T20:50:09.278Z,101153.84
2023-01-29T20:52:37.861Z,101140.50
2023-01-29T20:55:07.842Z,101128.28
2023-01-29T20:57:36.715Z,101132.72
2023-01-29T21:00:05.688Z,101126.28
2023-01-29T21:02:36.642Z,101120.28
2023-01-29T21:05:06.745Z,101117.56
2023-01-29T21:07:36.162Z,101112.94
2023-01-29T21:10:04.381Z,101108.00
2023-01-29T21:12:32.425Z,101096.56
2023-01-29T21:15:00.475Z,101088.91
2023-01-29T21:17:28.536Z,101082.84
2023-01-29T21:19:56.524Z,101076.06
2023-01-29T21:22:25.919Z,101087.19
2023-01-29T21:24:53.923Z,101079.50
2023-01-29T21:27:21.968Z,101073.47
2023-01-29T21:29:49.912Z,101053.38
2023-01-29T21:32:18.661Z,101062.88
2023-01-29T21:34:46.703Z,101062.91
2023-01-29T21:37:14.776Z,101056.91
2023-01-29T21:39:44.377Z,101050.94
2023-01-29T21:42:30.207Z,101050.84
2023-01-29T21:44:58.254Z,101032.13
2023-01-29T21:47:26.303Z,101032.78
2023-01-29T21:49:54.461Z,101017.06
2023-01-29T21:52:22.528Z,101010.78
2023-01-29T21:54:52.035Z,101023.75
2023-01-29T21:57:20.176Z,101010.75
2023-01-29T21:59:52.894Z,101014.50
2023-01-29T22:02:22.904Z,101016.25
2023-01-29T22:04:52.320Z,101018.16
2023-01-29T22:07:20.423Z,101007.59
2023-01-29T22:09:48.583Z,101008.41
2023-01-29T22:12:18.313Z,100997.09
2023-01-29T22:14:47.300Z,100994.81
2023-01-29T22:17:16.456Z,100990.41
2023-01-29T22:19:44.662Z,100984.34
2023-01-29T22:22:14.589Z,100993.00
2023-01-29T22:24:44.747Z,100979.72
2023-01-29T22:27:13.172Z,100974.50
2023-01-29T22:29:42.795Z,100968.66
2023-01-29T22:32:11.527Z,100956.41
2023-01-29T22:34:39.710Z,100955.47
2023-01-29T22:37:07.757Z,100951.06
2023-01-29T22:39:35.700Z,100933.66
2023-01-29T22:42:03.956Z,100938.25
2023-01-29T22:44:35.263Z,100925.16
2023-01-29T22:47:04.679Z,100933.06
2023-01-29T22:49:32.747Z,100931.16
2023-01-29T22:52:12.644Z,100917.22
2023-01-29T22:54:42.408Z,100918.47
2023-01-29T22:57:11.935Z,100903.09
2023-01-29T22:59:40.178Z,100892.63
2023-01-29T23:02:10.338Z,100890.88
2023-01-29T23:04:38.357Z,100884.88
2023-01-29T23:07:06.428Z,100869.38
2023-01-29T23:09:34.920Z,100868.28
2023-01-29T23:12:03.144Z,100870.97
2023-01-29T23:14:31.101Z,100875.25
2023-01-29T23:16:59.227Z,100870.16
2023-01-29T23:19:30.065Z,100863.84
2023-01-29T23:21:58.504Z,100857.84
2023-01-29T23:24:27.227Z,100847.63
2023-01-29T23:27:13.217Z,100829.44
2023-01-29T23:29:41.887Z,100841.41
2023-01-29T23:32:10.571Z,100832.16
2023-01-29T23:34:40.597Z,100820.63
2023-01-29T23:37:09.082Z,100824.38
2023-01-29T23:39:37.424Z,100812.00
2023-01-29T23:42:05.532Z,100812.47
2023-01-29T23:44:33.480Z,100806.69
2023-01-29T23:47:01.555Z,100805.78
2023-01-29T23:49:29.620Z,100793.91
2023-01-29T23:51:59.301Z,100805.66
2023-01-29T23:54:27.539Z,100792.50
2023-01-29T23:56:55.880Z,100792.91
2023-01-29T23:59:24.156Z,100806.25
